EVA806 VMMC-RCTP
Flight info
| Callsign | EVA806 |
|---|---|
| Flight time | 1h 14m |
| Altitude | 39000 |
| Route | CONGA V631 ENVAR M750 EXTRA/N0442F290 M750 TONGA TONGA1A |
| Aircraft | A333/H-SDE3GHIJ2J3J5M1RVWXY/LB2D1 |
Departure
| Time | 2026-04-20 12:28 |
|---|---|
| Airport | Macau International Airport (VMMC) |
Arrival
| Time | 2026-04-20 13:43 |
|---|---|
| Airport | Taiwan Taoyuan International Airport (RCTP) |
| Time | Latitude | Longitude | Altitude | Speed | Heading |
|---|---|---|---|---|---|
| 2026-04-20 12:05 | 22.15862 | 113.57607 | 28 ft | 0 kts | 285° |
| 2026-04-20 12:14 | 22.15860 | 113.57615 | 27 ft | 2 kts | 285° |
| 2026-04-20 12:14 | 22.15857 | 113.57623 | 27 ft | 0 kts | 285° |
| 2026-04-20 12:15 | 22.15855 | 113.57636 | 26 ft | 3 kts | 285° |
| 2026-04-20 12:15 | 22.15850 | 113.57655 | 25 ft | 2 kts | 285° |
| 2026-04-20 12:16 | 22.15846 | 113.57671 | 24 ft | 2 kts | 273° |
| 2026-04-20 12:16 | 22.15849 | 113.57687 | 23 ft | 2 kts | 234° |
| 2026-04-20 12:16 | 22.15860 | 113.57698 | 22 ft | 2 kts | 204° |
| 2026-04-20 12:16 | 22.15873 | 113.57702 | 22 ft | 1 kts | 193° |
| 2026-04-20 12:17 | 22.15877 | 113.57703 | 22 ft | 0 kts | 194° |
| 2026-04-20 12:18 | 22.15875 | 113.57703 | 22 ft | 1 kts | 195° |
| 2026-04-20 12:19 | 22.15854 | 113.57696 | 22 ft | 5 kts | 197° |
| 2026-04-20 12:19 | 22.15808 | 113.57682 | 23 ft | 8 kts | 195° |
| 2026-04-20 12:19 | 22.15739 | 113.57655 | 22 ft | 11 kts | 206° |
| 2026-04-20 12:19 | 22.15670 | 113.57610 | 23 ft | 8 kts | 214° |
| 2026-04-20 12:20 | 22.15615 | 113.57609 | 22 ft | 8 kts | 146° |
| 2026-04-20 12:20 | 22.15571 | 113.57669 | 19 ft | 11 kts | 124° |
| 2026-04-20 12:20 | 22.15526 | 113.57743 | 18 ft | 11 kts | 123° |
| 2026-04-20 12:20 | 22.15479 | 113.57818 | 17 ft | 12 kts | 124° |
| 2026-04-20 12:21 | 22.15432 | 113.57895 | 16 ft | 12 kts | 124° |
| 2026-04-20 12:21 | 22.15385 | 113.57973 | 14 ft | 12 kts | 123° |
| 2026-04-20 12:21 | 22.15335 | 113.58051 | 14 ft | 12 kts | 124° |
| 2026-04-20 12:21 | 22.15286 | 113.58130 | 14 ft | 14 kts | 123° |
| 2026-04-20 12:22 | 22.15220 | 113.58237 | 14 ft | 19 kts | 124° |
| 2026-04-20 12:22 | 22.15137 | 113.58372 | 14 ft | 22 kts | 123° |
| 2026-04-20 12:22 | 22.15050 | 113.58514 | 14 ft | 22 kts | 123° |
| 2026-04-20 12:22 | 22.14962 | 113.58655 | 14 ft | 21 kts | 124° |
| 2026-04-20 12:23 | 22.14880 | 113.58788 | 14 ft | 20 kts | 123° |
| 2026-04-20 12:23 | 22.14804 | 113.58912 | 15 ft | 19 kts | 123° |
| 2026-04-20 12:23 | 22.14745 | 113.59008 | 17 ft | 10 kts | 127° |
| 2026-04-20 12:23 | 22.14682 | 113.59049 | 17 ft | 10 kts | 161° |
| 2026-04-20 12:24 | 22.14614 | 113.59073 | 17 ft | 9 kts | 161° |
| 2026-04-20 12:24 | 22.14542 | 113.59100 | 17 ft | 13 kts | 161° |
| 2026-04-20 12:24 | 22.14429 | 113.59141 | 17 ft | 19 kts | 161° |
| 2026-04-20 12:24 | 22.14295 | 113.59190 | 17 ft | 20 kts | 161° |
| 2026-04-20 12:25 | 22.14164 | 113.59238 | 17 ft | 19 kts | 161° |
| 2026-04-20 12:25 | 22.14037 | 113.59285 | 17 ft | 18 kts | 161° |
| 2026-04-20 12:25 | 22.13917 | 113.59330 | 17 ft | 17 kts | 161° |
| 2026-04-20 12:25 | 22.13800 | 113.59373 | 17 ft | 17 kts | 161° |
| 2026-04-20 12:26 | 22.13688 | 113.59413 | 16 ft | 17 kts | 161° |
| 2026-04-20 12:26 | 22.13588 | 113.59450 | 15 ft | 9 kts | 157° |
| 2026-04-20 12:26 | 22.13545 | 113.59492 | 16 ft | 7 kts | 126° |
| 2026-04-20 12:26 | 22.13516 | 113.59538 | 17 ft | 8 kts | 124° |
| 2026-04-20 12:27 | 22.13493 | 113.59601 | 17 ft | 9 kts | 89° |
| 2026-04-20 12:27 | 22.13526 | 113.59656 | 17 ft | 9 kts | 18° |
| 2026-04-20 12:27 | 22.13563 | 113.59648 | 17 ft | 5 kts | 339° |
| 2026-04-20 12:27 | 22.13745 | 113.59580 | 17 ft | 62 kts | 341° |
| 2026-04-20 12:28 | 22.14395 | 113.59341 | 17 ft | 132 kts | 341° |
| 2026-04-20 12:28 | 22.15467 | 113.58939 | 104 ft | 180 kts | 341° |
| 2026-04-20 12:28 | 22.16676 | 113.58530 | 725 ft | 183 kts | 353° |
| 2026-04-20 12:28 | 22.17845 | 113.58787 | 1510 ft | 176 kts | 35° |
| 2026-04-20 12:29 | 22.18924 | 113.59460 | 2144 ft | 180 kts | 30° |
| 2026-04-20 12:29 | 22.20075 | 113.60090 | 2475 ft | 191 kts | 29° |
| 2026-04-20 12:29 | 22.21309 | 113.60748 | 2782 ft | 205 kts | 28° |
| 2026-04-20 12:29 | 22.22630 | 113.61443 | 3093 ft | 219 kts | 28° |
| 2026-04-20 12:30 | 22.24053 | 113.62186 | 3388 ft | 234 kts | 27° |
| 2026-04-20 12:30 | 22.25555 | 113.62968 | 3901 ft | 240 kts | 27° |
| 2026-04-20 12:30 | 22.27036 | 113.63741 | 4577 ft | 237 kts | 27° |
| 2026-04-20 12:30 | 22.28482 | 113.64578 | 5168 ft | 238 kts | 38° |
| 2026-04-20 12:31 | 22.29792 | 113.65721 | 5553 ft | 249 kts | 40° |
| 2026-04-20 12:31 | 22.31195 | 113.66929 | 5878 ft | 264 kts | 40° |
| 2026-04-20 12:31 | 22.32660 | 113.68189 | 6158 ft | 280 kts | 39° |
| 2026-04-20 12:31 | 22.34062 | 113.69724 | 6570 ft | 294 kts | 59° |
| 2026-04-20 12:32 | 22.34755 | 113.71793 | 7359 ft | 294 kts | 83° |
| 2026-04-20 12:32 | 22.35100 | 113.73958 | 8127 ft | 298 kts | 79° |
| 2026-04-20 12:32 | 22.35519 | 113.76144 | 8829 ft | 303 kts | 79° |
| 2026-04-20 12:32 | 22.35954 | 113.78393 | 9532 ft | 307 kts | 78° |
| 2026-04-20 12:33 | 22.36392 | 113.80647 | 10213 ft | 311 kts | 78° |
| 2026-04-20 12:33 | 22.36847 | 113.82981 | 10640 ft | 326 kts | 78° |
| 2026-04-20 12:33 | 22.37321 | 113.85423 | 10980 ft | 342 kts | 78° |
| 2026-04-20 12:33 | 22.37464 | 113.88054 | 11253 ft | 359 kts | 97° |
| 2026-04-20 12:34 | 22.36750 | 113.90668 | 11476 ft | 374 kts | 117° |
| 2026-04-20 12:34 | 22.35186 | 113.92984 | 11745 ft | 385 kts | 135° |
| 2026-04-20 12:34 | 22.33492 | 113.95267 | 12201 ft | 393 kts | 125° |
| 2026-04-20 12:34 | 22.31932 | 113.97692 | 12783 ft | 396 kts | 126° |
| 2026-04-20 12:35 | 22.30376 | 114.00119 | 13358 ft | 398 kts | 126° |
| 2026-04-20 12:35 | 22.28784 | 114.02603 | 13962 ft | 400 kts | 125° |
| 2026-04-20 12:35 | 22.27206 | 114.05067 | 14515 ft | 403 kts | 126° |
| 2026-04-20 12:35 | 22.25604 | 114.07566 | 15005 ft | 406 kts | 126° |
| 2026-04-20 12:36 | 22.24001 | 114.10063 | 15511 ft | 409 kts | 126° |
| 2026-04-20 12:36 | 22.22365 | 114.12611 | 15999 ft | 413 kts | 126° |
| 2026-04-20 12:36 | 22.20725 | 114.15162 | 16486 ft | 416 kts | 126° |
| 2026-04-20 12:36 | 22.19088 | 114.17710 | 16939 ft | 419 kts | 126° |
| 2026-04-20 12:37 | 22.17408 | 114.20323 | 17397 ft | 422 kts | 126° |
| 2026-04-20 12:37 | 22.15731 | 114.22934 | 17806 ft | 426 kts | 126° |
| 2026-04-20 12:37 | 22.14039 | 114.25562 | 18242 ft | 428 kts | 126° |
| 2026-04-20 12:37 | 22.12356 | 114.28178 | 18669 ft | 431 kts | 126° |
| 2026-04-20 12:38 | 22.10632 | 114.30856 | 19089 ft | 433 kts | 126° |
| 2026-04-20 12:38 | 22.08911 | 114.33529 | 19460 ft | 437 kts | 126° |
| 2026-04-20 12:38 | 22.07181 | 114.36215 | 19869 ft | 439 kts | 126° |
| 2026-04-20 12:38 | 22.05469 | 114.38941 | 20248 ft | 441 kts | 126° |
| 2026-04-20 12:39 | 22.02012 | 114.44434 | 20976 ft | 446 kts | 126° |
| 2026-04-20 12:39 | 22.00264 | 114.47206 | 21300 ft | 449 kts | 126° |
| 2026-04-20 12:39 | 21.98504 | 114.49999 | 21629 ft | 451 kts | 126° |
| 2026-04-20 12:40 | 21.96735 | 114.52805 | 21980 ft | 453 kts | 126° |
| 2026-04-20 12:40 | 21.94862 | 114.55522 | 22258 ft | 454 kts | 130° |
| 2026-04-20 12:40 | 21.92937 | 114.58244 | 22552 ft | 457 kts | 129° |
| 2026-04-20 12:40 | 21.91009 | 114.60979 | 22894 ft | 459 kts | 129° |
| 2026-04-20 12:41 | 21.89089 | 114.63704 | 23207 ft | 461 kts | 129° |
| 2026-04-20 12:41 | 21.87137 | 114.66476 | 23527 ft | 462 kts | 130° |
| 2026-04-20 12:41 | 21.85208 | 114.69210 | 23855 ft | 463 kts | 130° |
| 2026-04-20 12:41 | 21.83261 | 114.71973 | 24161 ft | 465 kts | 130° |
| 2026-04-20 12:42 | 21.81302 | 114.74747 | 24477 ft | 466 kts | 130° |
| 2026-04-20 12:42 | 21.79323 | 114.77552 | 24806 ft | 467 kts | 130° |
| 2026-04-20 12:42 | 21.77355 | 114.80338 | 25083 ft | 469 kts | 130° |
| 2026-04-20 12:42 | 21.75525 | 114.83249 | 25328 ft | 475 kts | 120° |
| 2026-04-20 12:43 | 21.74399 | 114.86588 | 25560 ft | 482 kts | 104° |
| 2026-04-20 12:43 | 21.74133 | 114.90205 | 25834 ft | 487 kts | 89° |
| 2026-04-20 12:43 | 21.74301 | 114.93801 | 26110 ft | 488 kts | 90° |
| 2026-04-20 12:43 | 21.74340 | 114.97440 | 26388 ft | 489 kts | 91° |
| 2026-04-20 12:44 | 21.74354 | 115.01096 | 26670 ft | 491 kts | 91° |
| 2026-04-20 12:44 | 21.74358 | 115.04791 | 26934 ft | 492 kts | 91° |
| 2026-04-20 12:44 | 21.74356 | 115.08445 | 27206 ft | 494 kts | 91° |
| 2026-04-20 12:44 | 21.74354 | 115.12134 | 27474 ft | 496 kts | 91° |
| 2026-04-20 12:45 | 21.74350 | 115.15853 | 27733 ft | 497 kts | 91° |
| 2026-04-20 12:45 | 21.74344 | 115.19566 | 28016 ft | 498 kts | 91° |
| 2026-04-20 12:45 | 21.74339 | 115.23261 | 28275 ft | 500 kts | 91° |
| 2026-04-20 12:45 | 21.74332 | 115.27026 | 28541 ft | 501 kts | 91° |
| 2026-04-20 12:46 | 21.74324 | 115.30737 | 28772 ft | 502 kts | 91° |
| 2026-04-20 12:46 | 21.74316 | 115.34520 | 28992 ft | 504 kts | 91° |
| 2026-04-20 12:46 | 21.74307 | 115.38248 | 29247 ft | 505 kts | 91° |
| 2026-04-20 12:46 | 21.74296 | 115.42055 | 29518 ft | 506 kts | 91° |
| 2026-04-20 12:47 | 21.74285 | 115.45826 | 29824 ft | 506 kts | 91° |
| 2026-04-20 12:47 | 21.74273 | 115.49571 | 30135 ft | 506 kts | 91° |
| 2026-04-20 12:47 | 21.74261 | 115.53339 | 30451 ft | 506 kts | 91° |
| 2026-04-20 12:47 | 21.74247 | 115.57105 | 30759 ft | 506 kts | 91° |
| 2026-04-20 12:48 | 21.74234 | 115.60911 | 31065 ft | 506 kts | 91° |
| 2026-04-20 12:48 | 21.74219 | 115.64691 | 31418 ft | 506 kts | 91° |
| 2026-04-20 12:48 | 21.74206 | 115.68441 | 31753 ft | 505 kts | 92° |
| 2026-04-20 12:48 | 21.74190 | 115.72207 | 32059 ft | 505 kts | 91° |
| 2026-04-20 12:49 | 21.74173 | 115.75952 | 32391 ft | 504 kts | 91° |
| 2026-04-20 12:49 | 21.74157 | 115.79714 | 32719 ft | 504 kts | 91° |
| 2026-04-20 12:49 | 21.74138 | 115.83508 | 33041 ft | 504 kts | 91° |
| 2026-04-20 12:49 | 21.74120 | 115.87238 | 33396 ft | 503 kts | 91° |
| 2026-04-20 12:50 | 21.74101 | 115.90981 | 33735 ft | 503 kts | 92° |
| 2026-04-20 12:50 | 21.74079 | 115.94727 | 34079 ft | 502 kts | 91° |
| 2026-04-20 12:50 | 21.74058 | 115.98463 | 34426 ft | 502 kts | 91° |
| 2026-04-20 12:50 | 21.74036 | 116.02202 | 34771 ft | 502 kts | 91° |
| 2026-04-20 12:51 | 21.74013 | 116.05962 | 35114 ft | 502 kts | 91° |
| 2026-04-20 12:51 | 21.73990 | 116.09663 | 35426 ft | 501 kts | 91° |
| 2026-04-20 12:51 | 21.73966 | 116.13403 | 35742 ft | 502 kts | 91° |
| 2026-04-20 12:51 | 21.73939 | 116.17169 | 36095 ft | 501 kts | 91° |
| 2026-04-20 12:52 | 21.73913 | 116.20918 | 36376 ft | 502 kts | 91° |
| 2026-04-20 12:52 | 21.73887 | 116.24644 | 36672 ft | 502 kts | 91° |
| 2026-04-20 12:52 | 21.73859 | 116.28358 | 36913 ft | 502 kts | 91° |
| 2026-04-20 12:52 | 21.73830 | 116.32111 | 37184 ft | 503 kts | 91° |
| 2026-04-20 12:53 | 21.73800 | 116.35848 | 37440 ft | 503 kts | 91° |
| 2026-04-20 12:53 | 21.73770 | 116.39589 | 37707 ft | 503 kts | 91° |
| 2026-04-20 12:53 | 21.73737 | 116.43363 | 37945 ft | 503 kts | 91° |
| 2026-04-20 12:53 | 21.73705 | 116.47081 | 38190 ft | 502 kts | 91° |
| 2026-04-20 12:54 | 21.73673 | 116.50835 | 38418 ft | 503 kts | 91° |
| 2026-04-20 12:54 | 21.73640 | 116.54592 | 38626 ft | 503 kts | 91° |
| 2026-04-20 12:54 | 21.73604 | 116.58350 | 38875 ft | 502 kts | 91° |
| 2026-04-20 12:54 | 21.73569 | 116.62063 | 39025 ft | 502 kts | 91° |
| 2026-04-20 12:55 | 21.73532 | 116.65822 | 38987 ft | 504 kts | 92° |
| 2026-04-20 12:55 | 21.73457 | 116.73318 | 38975 ft | 502 kts | 92° |
| 2026-04-20 12:56 | 21.74059 | 116.80779 | 38986 ft | 504 kts | 74° |
| 2026-04-20 12:56 | 21.76726 | 116.87749 | 38992 ft | 509 kts | 67° |
| 2026-04-20 12:57 | 21.79337 | 116.94861 | 38989 ft | 515 kts | 68° |
| 2026-04-20 12:57 | 21.81942 | 117.02058 | 38991 ft | 519 kts | 68° |
| 2026-04-20 12:58 | 21.84553 | 117.09287 | 38987 ft | 517 kts | 68° |
| 2026-04-20 12:58 | 21.87138 | 117.16457 | 38989 ft | 511 kts | 68° |
| 2026-04-20 12:59 | 21.89687 | 117.23542 | 38993 ft | 511 kts | 68° |
| 2026-04-20 12:59 | 21.92253 | 117.30685 | 38994 ft | 512 kts | 68° |
| 2026-04-20 13:00 | 21.94815 | 117.37823 | 38990 ft | 511 kts | 68° |
| 2026-04-20 13:00 | 21.97367 | 117.44949 | 38995 ft | 513 kts | 68° |
| 2026-04-20 13:01 | 22.00186 | 117.52005 | 38981 ft | 511 kts | 57° |
| 2026-04-20 13:01 | 22.03980 | 117.58467 | 38989 ft | 513 kts | 57° |
| 2026-04-20 13:02 | 22.07695 | 117.64995 | 38996 ft | 511 kts | 57° |
| 2026-04-20 13:02 | 22.11393 | 117.71515 | 38983 ft | 511 kts | 57° |
| 2026-04-20 13:03 | 22.15090 | 117.78043 | 38986 ft | 511 kts | 57° |
| 2026-04-20 13:03 | 22.18788 | 117.84579 | 38988 ft | 511 kts | 57° |
| 2026-04-20 13:04 | 22.22478 | 117.91112 | 38988 ft | 511 kts | 57° |
| 2026-04-20 13:04 | 22.26170 | 117.97656 | 38987 ft | 511 kts | 58° |
| 2026-04-20 13:05 | 22.29913 | 118.04157 | 38989 ft | 510 kts | 57° |
| 2026-04-20 13:05 | 22.33680 | 118.10613 | 38999 ft | 511 kts | 57° |
| 2026-04-20 13:06 | 22.37460 | 118.17099 | 38992 ft | 511 kts | 57° |
| 2026-04-20 13:06 | 22.41204 | 118.23573 | 38997 ft | 511 kts | 57° |
| 2026-04-20 13:07 | 22.44910 | 118.30119 | 39002 ft | 510 kts | 57° |
| 2026-04-20 13:07 | 22.48616 | 118.36661 | 39005 ft | 511 kts | 57° |
| 2026-04-20 13:08 | 22.52318 | 118.43210 | 39006 ft | 511 kts | 57° |
| 2026-04-20 13:08 | 22.56018 | 118.49760 | 39004 ft | 511 kts | 57° |
| 2026-04-20 13:09 | 22.59733 | 118.56289 | 39010 ft | 512 kts | 57° |
| 2026-04-20 13:09 | 22.63452 | 118.62821 | 39013 ft | 512 kts | 57° |
| 2026-04-20 13:10 | 22.67189 | 118.69389 | 38996 ft | 512 kts | 57° |
| 2026-04-20 13:10 | 22.70895 | 118.75911 | 39008 ft | 512 kts | 57° |
| 2026-04-20 13:11 | 22.74625 | 118.82484 | 39008 ft | 512 kts | 57° |
| 2026-04-20 13:11 | 22.78352 | 118.89059 | 39010 ft | 511 kts | 57° |
| 2026-04-20 13:12 | 22.82046 | 118.95586 | 39007 ft | 512 kts | 57° |
| 2026-04-20 13:12 | 22.85763 | 119.02161 | 39008 ft | 513 kts | 57° |
| 2026-04-20 13:13 | 22.89497 | 119.08776 | 39009 ft | 512 kts | 57° |
| 2026-04-20 13:13 | 22.93195 | 119.15333 | 39010 ft | 513 kts | 57° |
| 2026-04-20 13:14 | 22.96914 | 119.21938 | 39012 ft | 514 kts | 57° |
| 2026-04-20 13:14 | 23.00632 | 119.28548 | 39011 ft | 513 kts | 57° |
| 2026-04-20 13:15 | 23.04351 | 119.35170 | 39015 ft | 513 kts | 57° |
| 2026-04-20 13:15 | 23.08043 | 119.41750 | 39018 ft | 514 kts | 57° |
| 2026-04-20 13:16 | 23.11761 | 119.48385 | 39011 ft | 512 kts | 57° |
| 2026-04-20 13:16 | 23.15439 | 119.54957 | 39013 ft | 514 kts | 57° |
| 2026-04-20 13:16 | 23.17488 | 119.58101 | 39001 ft | 512 kts | 46° |
| 2026-04-20 13:17 | 23.20070 | 119.60774 | 39026 ft | 504 kts | 34° |
| 2026-04-20 13:17 | 23.22976 | 119.62750 | 39051 ft | 492 kts | 22° |
| 2026-04-20 13:17 | 23.26054 | 119.64425 | 38530 ft | 499 kts | 24° |
| 2026-04-20 13:17 | 23.29117 | 119.66284 | 37824 ft | 500 kts | 26° |
| 2026-04-20 13:18 | 23.32134 | 119.68159 | 37151 ft | 499 kts | 27° |
| 2026-04-20 13:18 | 23.35126 | 119.70037 | 36484 ft | 498 kts | 27° |
| 2026-04-20 13:18 | 23.38091 | 119.71903 | 35807 ft | 497 kts | 27° |
| 2026-04-20 13:18 | 23.41100 | 119.73801 | 35152 ft | 496 kts | 27° |
| 2026-04-20 13:19 | 23.44059 | 119.75668 | 34503 ft | 495 kts | 27° |
| 2026-04-20 13:19 | 23.47043 | 119.77551 | 33862 ft | 493 kts | 27° |
| 2026-04-20 13:19 | 23.49979 | 119.79503 | 33212 ft | 493 kts | 31° |
| 2026-04-20 13:19 | 23.52845 | 119.81487 | 32536 ft | 494 kts | 30° |
| 2026-04-20 13:20 | 23.55785 | 119.83512 | 31787 ft | 496 kts | 30° |
| 2026-04-20 13:20 | 23.58664 | 119.85493 | 31113 ft | 496 kts | 30° |
| 2026-04-20 13:20 | 23.61574 | 119.87499 | 30501 ft | 494 kts | 30° |
| 2026-04-20 13:20 | 23.64469 | 119.89494 | 29944 ft | 491 kts | 30° |
| 2026-04-20 13:21 | 23.67358 | 119.91487 | 29398 ft | 487 kts | 30° |
| 2026-04-20 13:21 | 23.70186 | 119.93438 | 28867 ft | 484 kts | 30° |
| 2026-04-20 13:21 | 23.73026 | 119.95397 | 28313 ft | 480 kts | 30° |
| 2026-04-20 13:21 | 23.75828 | 119.97333 | 27749 ft | 477 kts | 30° |
| 2026-04-20 13:22 | 23.78646 | 119.99278 | 27190 ft | 473 kts | 30° |
| 2026-04-20 13:22 | 23.81412 | 120.01192 | 26684 ft | 469 kts | 30° |
| 2026-04-20 13:22 | 23.84152 | 120.03087 | 26191 ft | 464 kts | 30° |
| 2026-04-20 13:22 | 23.86843 | 120.04950 | 25724 ft | 458 kts | 30° |
| 2026-04-20 13:23 | 23.89541 | 120.06817 | 25249 ft | 453 kts | 30° |
| 2026-04-20 13:23 | 23.92184 | 120.08649 | 24776 ft | 448 kts | 30° |
| 2026-04-20 13:23 | 23.94788 | 120.10452 | 24282 ft | 443 kts | 30° |
| 2026-04-20 13:23 | 23.97368 | 120.12241 | 23767 ft | 440 kts | 30° |
| 2026-04-20 13:24 | 23.99937 | 120.14024 | 23242 ft | 436 kts | 30° |
| 2026-04-20 13:24 | 24.02511 | 120.15808 | 22700 ft | 433 kts | 30° |
| 2026-04-20 13:24 | 24.05036 | 120.17562 | 22169 ft | 429 kts | 30° |
| 2026-04-20 13:24 | 24.07524 | 120.19289 | 21663 ft | 425 kts | 30° |
| 2026-04-20 13:25 | 24.10021 | 120.21024 | 21151 ft | 421 kts | 31° |
| 2026-04-20 13:25 | 24.12492 | 120.22742 | 20651 ft | 417 kts | 31° |
| 2026-04-20 13:25 | 24.14902 | 120.24419 | 20177 ft | 412 kts | 31° |
| 2026-04-20 13:25 | 24.17311 | 120.26096 | 19696 ft | 408 kts | 31° |
| 2026-04-20 13:26 | 24.19696 | 120.27756 | 19221 ft | 403 kts | 31° |
| 2026-04-20 13:26 | 24.22056 | 120.29401 | 18753 ft | 398 kts | 31° |
| 2026-04-20 13:26 | 24.24387 | 120.31025 | 18279 ft | 394 kts | 32° |
| 2026-04-20 13:26 | 24.26681 | 120.32625 | 17830 ft | 390 kts | 32° |
| 2026-04-20 13:27 | 24.28959 | 120.34214 | 17366 ft | 386 kts | 32° |
| 2026-04-20 13:27 | 24.31194 | 120.35774 | 16967 ft | 382 kts | 32° |
| 2026-04-20 13:27 | 24.33445 | 120.37347 | 16497 ft | 380 kts | 32° |
| 2026-04-20 13:27 | 24.35653 | 120.38890 | 16035 ft | 378 kts | 32° |
| 2026-04-20 13:28 | 24.37870 | 120.40440 | 15566 ft | 375 kts | 32° |
| 2026-04-20 13:28 | 24.40067 | 120.41975 | 15100 ft | 372 kts | 32° |
| 2026-04-20 13:28 | 24.42215 | 120.43477 | 14649 ft | 369 kts | 32° |
| 2026-04-20 13:28 | 24.44381 | 120.44992 | 14177 ft | 366 kts | 32° |
| 2026-04-20 13:29 | 24.46535 | 120.46501 | 13714 ft | 364 kts | 32° |
| 2026-04-20 13:29 | 24.48638 | 120.47973 | 13242 ft | 361 kts | 32° |
| 2026-04-20 13:29 | 24.50766 | 120.49463 | 12765 ft | 359 kts | 32° |
| 2026-04-20 13:29 | 24.52860 | 120.50931 | 12298 ft | 356 kts | 32° |
| 2026-04-20 13:30 | 24.54950 | 120.52389 | 11819 ft | 354 kts | 33° |
| 2026-04-20 13:30 | 24.56749 | 120.54198 | 11232 ft | 355 kts | 50° |
| 2026-04-20 13:30 | 24.58303 | 120.56297 | 10762 ft | 352 kts | 50° |
| 2026-04-20 13:30 | 24.59819 | 120.58335 | 10488 ft | 343 kts | 51° |
| 2026-04-20 13:31 | 24.61304 | 120.60345 | 10282 ft | 333 kts | 51° |
| 2026-04-20 13:31 | 24.62749 | 120.62307 | 10118 ft | 322 kts | 51° |
| 2026-04-20 13:31 | 24.64127 | 120.64181 | 9860 ft | 316 kts | 51° |
| 2026-04-20 13:31 | 24.65499 | 120.66049 | 9528 ft | 313 kts | 51° |
| 2026-04-20 13:32 | 24.66867 | 120.67913 | 9217 ft | 309 kts | 51° |
| 2026-04-20 13:32 | 24.68198 | 120.69727 | 8918 ft | 306 kts | 51° |
| 2026-04-20 13:32 | 24.69526 | 120.71537 | 8627 ft | 302 kts | 51° |
| 2026-04-20 13:32 | 24.70847 | 120.73340 | 8339 ft | 299 kts | 51° |
| 2026-04-20 13:33 | 24.72128 | 120.75087 | 8060 ft | 295 kts | 51° |
| 2026-04-20 13:33 | 24.73412 | 120.76841 | 7787 ft | 292 kts | 51° |
| 2026-04-20 13:33 | 24.74683 | 120.78576 | 7520 ft | 288 kts | 51° |
| 2026-04-20 13:33 | 24.75924 | 120.80271 | 7255 ft | 285 kts | 51° |
| 2026-04-20 13:34 | 24.77169 | 120.81973 | 7003 ft | 281 kts | 51° |
| 2026-04-20 13:34 | 24.78386 | 120.83640 | 6754 ft | 278 kts | 51° |
| 2026-04-20 13:34 | 24.79592 | 120.85291 | 6496 ft | 276 kts | 51° |
| 2026-04-20 13:34 | 24.80796 | 120.86939 | 6244 ft | 273 kts | 51° |
| 2026-04-20 13:35 | 24.81582 | 120.88016 | 6074 ft | 272 kts | 51° |
| 2026-04-20 13:35 | 24.83160 | 120.90176 | 5729 ft | 269 kts | 52° |
| 2026-04-20 13:35 | 24.84327 | 120.91774 | 5472 ft | 267 kts | 51° |
| 2026-04-20 13:35 | 24.85487 | 120.93362 | 5206 ft | 265 kts | 51° |
| 2026-04-20 13:36 | 24.86625 | 120.94922 | 4995 ft | 260 kts | 51° |
| 2026-04-20 13:36 | 24.87738 | 120.96447 | 4930 ft | 250 kts | 51° |
| 2026-04-20 13:36 | 24.88809 | 120.97916 | 4860 ft | 235 kts | 51° |
| 2026-04-20 13:36 | 24.89799 | 120.99274 | 4757 ft | 220 kts | 51° |
| 2026-04-20 13:37 | 24.90731 | 121.00552 | 4663 ft | 207 kts | 51° |
| 2026-04-20 13:37 | 24.91685 | 121.01720 | 4560 ft | 210 kts | 43° |
| 2026-04-20 13:37 | 24.92628 | 121.02930 | 4319 ft | 206 kts | 53° |
| 2026-04-20 13:37 | 24.93519 | 121.04150 | 4070 ft | 202 kts | 51° |
| 2026-04-20 13:38 | 24.94415 | 121.05328 | 3860 ft | 193 kts | 50° |
| 2026-04-20 13:38 | 24.95263 | 121.06422 | 3680 ft | 189 kts | 50° |
| 2026-04-20 13:38 | 24.96106 | 121.07499 | 3401 ft | 183 kts | 50° |
| 2026-04-20 13:38 | 24.96936 | 121.08549 | 3138 ft | 177 kts | 50° |
| 2026-04-20 13:39 | 24.97716 | 121.09535 | 2891 ft | 169 kts | 50° |
| 2026-04-20 13:39 | 24.98478 | 121.10497 | 2652 ft | 162 kts | 50° |
| 2026-04-20 13:39 | 24.99213 | 121.11422 | 2436 ft | 159 kts | 51° |
| 2026-04-20 13:39 | 24.99937 | 121.12337 | 2233 ft | 160 kts | 51° |
| 2026-04-20 13:40 | 25.00666 | 121.13257 | 2054 ft | 156 kts | 51° |
| 2026-04-20 13:40 | 25.01379 | 121.14156 | 1857 ft | 156 kts | 51° |
| 2026-04-20 13:40 | 25.02101 | 121.15066 | 1648 ft | 155 kts | 51° |
| 2026-04-20 13:40 | 25.02820 | 121.15975 | 1431 ft | 157 kts | 51° |
| 2026-04-20 13:41 | 25.03515 | 121.16851 | 1205 ft | 144 kts | 51° |
| 2026-04-20 13:41 | 25.04156 | 121.17657 | 1012 ft | 139 kts | 52° |
| 2026-04-20 13:41 | 25.04782 | 121.18456 | 837 ft | 137 kts | 48° |
| 2026-04-20 13:41 | 25.05436 | 121.19239 | 692 ft | 137 kts | 49° |
| 2026-04-20 13:42 | 25.06079 | 121.20064 | 527 ft | 139 kts | 51° |
| 2026-04-20 13:42 | 25.07338 | 121.21664 | 161 ft | 137 kts | 49° |
| 2026-04-20 13:42 | 25.07957 | 121.22444 | 120 ft | 125 kts | 52° |
| 2026-04-20 13:43 | 25.08448 | 121.23070 | 119 ft | 74 kts | 49° |
| 2026-04-20 13:43 | 25.08649 | 121.23333 | 119 ft | 27 kts | 57° |
| 2026-04-20 13:43 | 25.08708 | 121.23524 | 119 ft | 25 kts | 79° |
| 2026-04-20 13:43 | 25.08734 | 121.23683 | 119 ft | 16 kts | 79° |
| 2026-04-20 13:44 | 25.08736 | 121.23787 | 119 ft | 13 kts | 113° |
| 2026-04-20 13:44 | 25.08674 | 121.23858 | 119 ft | 12 kts | 139° |
| 2026-04-20 13:44 | 25.08608 | 121.23923 | 119 ft | 13 kts | 137° |
| 2026-04-20 13:44 | 25.08534 | 121.23994 | 119 ft | 14 kts | 139° |
| 2026-04-20 13:45 | 25.08478 | 121.24047 | 119 ft | 16 kts | 139° |
| 2026-04-20 13:45 | 25.08359 | 121.24161 | 119 ft | 16 kts | 139° |
| 2026-04-20 13:45 | 25.08272 | 121.24245 | 119 ft | 16 kts | 139° |
| 2026-04-20 13:45 | 25.08197 | 121.24316 | 119 ft | 9 kts | 143° |
| 2026-04-20 13:46 | 25.08138 | 121.24316 | 119 ft | 9 kts | 212° |
| 2026-04-20 13:46 | 25.08094 | 121.24267 | 119 ft | 8 kts | 229° |
| 2026-04-20 13:46 | 25.08054 | 121.24216 | 119 ft | 8 kts | 229° |
| 2026-04-20 13:46 | 25.08014 | 121.24165 | 119 ft | 9 kts | 229° |
| 2026-04-20 13:47 | 25.07969 | 121.24108 | 119 ft | 10 kts | 229° |
| 2026-04-20 13:47 | 25.07920 | 121.24046 | 119 ft | 10 kts | 229° |
| 2026-04-20 13:47 | 25.07869 | 121.23980 | 119 ft | 11 kts | 229° |
| 2026-04-20 13:47 | 25.07815 | 121.23910 | 119 ft | 12 kts | 229° |
| 2026-04-20 13:48 | 25.07758 | 121.23837 | 119 ft | 12 kts | 229° |
| 2026-04-20 13:48 | 25.07697 | 121.23761 | 119 ft | 13 kts | 229° |
| 2026-04-20 13:48 | 25.07634 | 121.23682 | 119 ft | 14 kts | 229° |
| 2026-04-20 13:48 | 25.07568 | 121.23596 | 119 ft | 14 kts | 229° |
| 2026-04-20 13:49 | 25.07502 | 121.23511 | 119 ft | 14 kts | 229° |
| 2026-04-20 13:49 | 25.07480 | 121.23482 | 119 ft | 14 kts | 229° |
| 2026-04-20 13:49 | 25.07397 | 121.23322 | 119 ft | 6 kts | 307° |
| 2026-04-20 13:50 | 25.07427 | 121.23289 | 119 ft | 6 kts | 319° |
| 2026-04-20 13:50 | 25.07454 | 121.23264 | 119 ft | 2 kts | 320° |
| 2026-04-20 13:50 | 25.07459 | 121.23259 | 119 ft | 0 kts | 320° |